createdAt,value
2023-02-08T00:00:07.482Z,14.73
2023-02-08T00:02:34.520Z,14.25
2023-02-08T00:05:01.331Z,14.57
2023-02-08T00:07:28.374Z,14.35
2023-02-08T00:09:55.164Z,14.50
2023-02-08T00:12:21.952Z,14.60
2023-02-08T00:14:48.681Z,16.20
2023-02-08T00:17:15.497Z,16.00
2023-02-08T00:19:42.301Z,16.10
2023-02-08T00:22:09.110Z,17.55
2023-02-08T00:24:35.980Z,16.70
2023-02-08T00:27:02.868Z,16.13
2023-02-08T00:29:29.755Z,15.18
2023-02-08T00:31:57.136Z,16.15
2023-02-08T00:34:23.971Z,16.77
2023-02-08T00:36:50.891Z,16.45
2023-02-08T00:39:17.789Z,15.77
2023-02-08T00:41:44.577Z,16.65
2023-02-08T00:44:11.319Z,14.80
2023-02-08T00:46:38.152Z,14.68
2023-02-08T00:49:05.206Z,15.73
2023-02-08T00:51:31.972Z,15.38
2023-02-08T00:53:58.763Z,15.55
2023-02-08T00:56:25.569Z,16.95
2023-02-08T00:58:52.317Z,16.38
2023-02-08T01:01:19.225Z,16.88
2023-02-08T01:03:46.003Z,16.02
2023-02-08T01:06:18.390Z,17.20
2023-02-08T01:08:45.387Z,15.27
2023-02-08T01:11:21.735Z,16.13
2023-02-08T01:13:49.722Z,15.82
2023-02-08T01:16:22.845Z,16.77
2023-02-08T01:18:52.028Z,15.70
2023-02-08T01:21:21.750Z,15.88
2023-02-08T01:23:49.191Z,15.00
2023-02-08T01:26:17.681Z,17.23
2023-02-08T01:28:44.768Z,17.02
2023-02-08T01:31:14.245Z,14.70
2023-02-08T01:33:42.135Z,16.42
2023-02-08T01:36:09.723Z,15.30
2023-02-08T01:38:37.997Z,16.17
2023-02-08T01:41:07.424Z,16.00
2023-02-08T01:44:00.398Z,17.10
2023-02-08T01:46:27.509Z,19.40
2023-02-08T01:48:58.052Z,17.55
2023-02-08T01:51:34.108Z,17.70
2023-02-08T01:54:03.565Z,17.42
2023-02-08T01:56:36.095Z,15.82
2023-02-08T01:59:08.777Z,17.10
2023-02-08T02:01:37.732Z,16.38
2023-02-08T02:04:07.144Z,16.73
2023-02-08T02:06:37.285Z,15.30
2023-02-08T02:09:17.660Z,15.32
2023-02-08T02:11:44.653Z,17.02
2023-02-08T02:14:12.059Z,15.82
2023-02-08T02:16:38.863Z,15.15
2023-02-08T02:19:12.358Z,15.35
2023-02-08T02:21:45.735Z,15.00
2023-02-08T02:24:54.603Z,13.90
2023-02-08T02:27:53.311Z,15.50
2023-02-08T02:30:53.664Z,14.90
2023-02-08T02:33:29.431Z,14.68
2023-02-08T02:36:05.565Z,14.07
2023-02-08T02:38:56.868Z,13.95
2023-02-08T02:42:11.197Z,15.23
2023-02-08T02:44:52.281Z,12.43
2023-02-08T02:47:52.191Z,15.02
2023-02-08T02:50:52.919Z,13.13
2023-02-08T02:53:36.214Z,14.80
2023-02-08T02:56:21.474Z,13.75
2023-02-08T02:58:49.539Z,13.68
2023-02-08T03:01:29.936Z,14.65
2023-02-08T03:03:57.945Z,16.15
2023-02-08T03:06:54.325Z,14.77
2023-02-08T03:09:42.545Z,15.63
2023-02-08T03:12:40.599Z,17.27
2023-02-08T03:15:27.816Z,16.25
2023-02-08T03:18:15.574Z,14.98
2023-02-08T03:20:50.700Z,16.48
2023-02-08T03:23:35.175Z,15.85
2023-02-08T03:26:20.825Z,15.45
2023-02-08T03:28:50.766Z,14.98
2023-02-08T03:31:26.851Z,15.00
2023-02-08T03:34:16.833Z,17.20
2023-02-08T03:37:11.398Z,13.82
2023-02-08T03:39:40.479Z,13.30
2023-02-08T03:42:13.878Z,14.82
2023-02-08T03:44:54.841Z,14.57
2023-02-08T03:47:24.707Z,13.57
2023-02-08T03:49:54.282Z,14.55
2023-02-08T03:52:22.570Z,14.85
2023-02-08T03:54:54.712Z,15.57
2023-02-08T03:57:28.666Z,16.10
2023-02-08T04:00:05.858Z,16.45
2023-02-08T04:02:37.534Z,16.85
2023-02-08T04:05:05.901Z,15.57
2023-02-08T04:07:32.968Z,14.77
2023-02-08T04:09:59.725Z,15.05
2023-02-08T04:12:26.477Z,17.08
2023-02-08T04:14:53.236Z,18.38
2023-02-08T04:17:20.017Z,21.58
2023-02-08T04:19:46.787Z,20.25
2023-02-08T04:22:13.693Z,19.77
2023-02-08T04:24:41.013Z,18.00
2023-02-08T04:27:07.815Z,16.38
2023-02-08T04:29:34.593Z,16.98
2023-02-08T04:32:01.388Z,15.45
2023-02-08T04:34:28.287Z,15.85
2023-02-08T04:36:55.064Z,15.13
2023-02-08T04:39:21.950Z,17.02
2023-02-08T04:41:48.819Z,14.50
2023-02-08T04:44:15.677Z,17.95
2023-02-08T04:46:42.444Z,15.55
2023-02-08T04:49:09.242Z,14.63
2023-02-08T04:51:36.084Z,16.40
2023-02-08T04:54:02.963Z,17.70
2023-02-08T04:56:29.745Z,15.75
2023-02-08T04:58:56.573Z,16.58
2023-02-08T05:01:23.481Z,20.73
2023-02-08T05:03:50.717Z,19.58
2023-02-08T05:06:17.544Z,16.67
2023-02-08T05:08:44.410Z,18.92
2023-02-08T05:11:11.263Z,20.05
2023-02-08T05:13:38.049Z,19.05
2023-02-08T05:16:05.158Z,16.17
2023-02-08T05:18:32.067Z,17.20
2023-02-08T05:21:00.789Z,16.05
2023-02-08T05:23:28.161Z,17.98
2023-02-08T05:25:54.990Z,16.75
2023-02-08T05:28:21.854Z,14.95
2023-02-08T05:30:48.826Z,15.98
2023-02-08T05:33:16.187Z,16.05
2023-02-08T05:35:45.158Z,16.73
2023-02-08T05:38:11.954Z,17.27
2023-02-08T05:40:39.082Z,16.92
2023-02-08T05:43:06.376Z,17.60
2023-02-08T05:45:33.201Z,17.48
2023-02-08T05:48:00.075Z,17.55
2023-02-08T05:50:27.658Z,19.27
2023-02-08T05:52:54.492Z,17.88
2023-02-08T05:55:21.336Z,20.80
2023-02-08T05:57:48.152Z,19.60
2023-02-08T06:00:15.661Z,19.20
2023-02-08T06:02:42.504Z,18.63
2023-02-08T06:05:09.319Z,17.83
2023-02-08T06:07:36.123Z,16.88
2023-02-08T06:10:03.871Z,15.93
2023-02-08T06:12:30.759Z,20.33
2023-02-08T06:14:57.584Z,17.88
2023-02-08T06:17:24.386Z,17.13
2023-02-08T06:19:51.250Z,16.55
2023-02-08T06:22:18.015Z,15.25
2023-02-08T06:24:44.856Z,15.52
2023-02-08T06:27:11.666Z,18.02
2023-02-08T06:29:38.470Z,18.90
2023-02-08T06:32:05.492Z,18.15
2023-02-08T06:34:32.354Z,17.92
2023-02-08T06:37:02.138Z,18.83
2023-02-08T06:39:29.768Z,18.83
2023-02-08T06:41:56.571Z,18.08
2023-02-08T06:44:23.840Z,19.60
2023-02-08T06:46:50.970Z,21.05
2023-02-08T06:49:17.736Z,19.23
2023-02-08T06:51:44.566Z,20.27
2023-02-08T06:54:11.468Z,21.48
2023-02-08T06:56:38.207Z,18.90
2023-02-08T06:59:05.026Z,20.35
2023-02-08T07:01:31.906Z,21.08
2023-02-08T07:03:58.686Z,23.48
2023-02-08T07:06:25.561Z,20.58
2023-02-08T07:08:52.335Z,21.73
2023-02-08T07:11:20.569Z,23.63
2023-02-08T07:13:51.704Z,22.25
2023-02-08T07:16:19.681Z,21.85
2023-02-08T07:18:46.789Z,22.17
2023-02-08T07:21:13.701Z,23.85
2023-02-08T07:23:40.830Z,22.20
2023-02-08T07:26:10.318Z,21.20
2023-02-08T07:28:38.067Z,20.77
2023-02-08T07:31:09.616Z,22.48
2023-02-08T07:33:37.277Z,24.08
2023-02-08T07:36:05.394Z,23.10
2023-02-08T07:38:33.760Z,22.92
2023-02-08T07:41:12.578Z,24.63
2023-02-08T07:43:40.600Z,24.10
2023-02-08T07:46:16.186Z,23.73
2023-02-08T07:48:43.187Z,25.77
2023-02-08T07:51:11.580Z,27.75
2023-02-08T07:53:38.662Z,24.50
2023-02-08T07:56:06.474Z,26.50
2023-02-08T07:58:33.270Z,25.35
2023-02-08T08:01:04.866Z,28.20
2023-02-08T08:03:39.672Z,25.35
2023-02-08T08:06:06.673Z,28.08
2023-02-08T08:08:33.580Z,28.73
2023-02-08T08:11:02.187Z,30.30
2023-02-08T08:13:30.514Z,28.60
2023-02-08T08:15:57.437Z,29.40
2023-02-08T08:18:24.296Z,30.95
2023-02-08T08:20:51.424Z,29.00
2023-02-08T08:23:19.606Z,26.38
2023-02-08T08:25:46.614Z,29.38
2023-02-08T08:28:13.661Z,28.30
2023-02-08T08:30:44.540Z,29.50
2023-02-08T08:33:13.994Z,29.83
2023-02-08T08:35:42.521Z,27.92
2023-02-08T08:38:09.820Z,28.65
2023-02-08T08:40:36.622Z,28.23
2023-02-08T08:43:03.342Z,27.15
2023-02-08T08:45:30.389Z,28.85
2023-02-08T08:47:57.241Z,29.52
2023-02-08T08:50:23.973Z,29.95
2023-02-08T08:52:50.736Z,28.75
2023-02-08T08:55:17.634Z,29.13
2023-02-08T08:57:44.453Z,27.67
2023-02-08T09:00:12.428Z,29.45
2023-02-08T09:02:39.217Z,28.63
2023-02-08T09:05:08.026Z,29.35
2023-02-08T09:07:35.337Z,27.15
2023-02-08T09:10:02.113Z,27.27
2023-02-08T09:12:29.253Z,27.77
2023-02-08T09:14:55.994Z,29.58
2023-02-08T09:17:22.940Z,28.30
2023-02-08T09:19:49.901Z,25.38
2023-02-08T09:22:16.717Z,27.15
2023-02-08T09:24:43.433Z,28.58
2023-02-08T09:27:10.212Z,26.42
2023-02-08T09:29:36.984Z,28.65
2023-02-08T09:32:03.774Z,26.60
2023-02-08T09:34:30.655Z,27.70
2023-02-08T09:36:57.560Z,26.95
2023-02-08T09:39:25.691Z,26.30
2023-02-08T09:42:01.749Z,25.40
2023-02-08T09:44:53.511Z,25.60
2023-02-08T09:47:22.542Z,24.15
2023-02-08T09:50:17.620Z,25.60
2023-02-08T09:53:11.639Z,25.50
2023-02-08T09:55:46.549Z,24.13
2023-02-08T09:58:34.435Z,23.38
2023-02-08T10:01:01.641Z,24.35
2023-02-08T10:03:34.545Z,23.55
2023-02-08T10:06:03.234Z,25.08
2023-02-08T10:08:35.347Z,20.77
2023-02-08T10:11:29.097Z,21.60
2023-02-08T10:14:26.522Z,23.13
2023-02-08T10:16:56.402Z,20.83
2023-02-08T10:19:23.141Z,20.33
2023-02-08T10:21:59.193Z,21.25
2023-02-08T10:24:51.801Z,20.50
2023-02-08T10:27:31.570Z,21.48
2023-02-08T10:30:16.871Z,20.50
2023-02-08T10:33:08.358Z,20.17
2023-02-08T10:35:44.354Z,20.25
2023-02-08T10:38:20.479Z,20.42
2023-02-08T10:40:52.188Z,20.20
2023-02-08T10:43:31.326Z,20.63
2023-02-08T10:46:03.965Z,19.13
2023-02-08T10:48:39.929Z,19.35
2023-02-08T10:51:09.812Z,19.95
2023-02-08T10:53:36.667Z,19.02
2023-02-08T10:56:04.676Z,20.60
2023-02-08T10:58:31.995Z,20.35
2023-02-08T11:01:00.006Z,19.58
2023-02-08T11:03:29.357Z,18.30
2023-02-08T11:05:56.836Z,20.48
2023-02-08T11:08:27.634Z,19.20
2023-02-08T11:11:00.282Z,18.88
2023-02-08T11:13:34.714Z,18.58
2023-02-08T11:16:05.886Z,19.25
2023-02-08T11:18:39.961Z,19.73
2023-02-08T11:21:11.933Z,19.73
2023-02-08T11:23:42.543Z,20.05
2023-02-08T11:26:20.407Z,20.70
2023-02-08T11:29:18.050Z,20.27
2023-02-08T11:32:02.770Z,20.40
2023-02-08T11:34:40.844Z,19.10
2023-02-08T11:37:28.559Z,19.33
2023-02-08T11:39:58.215Z,19.63
2023-02-08T11:42:28.981Z,18.58
2023-02-08T11:44:57.757Z,20.15
2023-02-08T11:47:34.055Z,20.20
2023-02-08T11:50:21.699Z,19.95
2023-02-08T11:52:57.688Z,19.45
2023-02-08T11:55:27.610Z,19.58
2023-02-08T11:58:00.080Z,19.05
2023-02-08T12:00:34.206Z,19.55
2023-02-08T12:03:16.001Z,19.27
2023-02-08T12:06:13.209Z,19.13
2023-02-08T12:08:58.177Z,19.67
2023-02-08T12:11:43.185Z,18.30
2023-02-08T12:14:45.913Z,17.60
2023-02-08T12:17:18.604Z,18.50
2023-02-08T12:20:15.874Z,17.35
2023-02-08T12:22:56.671Z,17.45
2023-02-08T12:25:36.148Z,18.17
2023-02-08T12:28:14.980Z,17.40
2023-02-08T12:31:04.507Z,18.92
2023-02-08T12:33:33.473Z,19.15
2023-02-08T12:36:39.043Z,18.15
2023-02-08T12:39:28.875Z,17.67
2023-02-08T12:42:11.821Z,17.58
2023-02-08T12:45:03.689Z,18.42
2023-02-08T12:48:04.054Z,18.00
2023-02-08T12:50:49.632Z,16.65
2023-02-08T12:53:37.525Z,17.35
2023-02-08T12:56:10.782Z,19.27
2023-02-08T12:59:11.722Z,17.95
2023-02-08T13:01:51.508Z,18.50
2023-02-08T13:04:26.601Z,17.42
2023-02-08T13:06:58.147Z,18.05
2023-02-08T13:09:35.496Z,17.80
2023-02-08T13:12:28.058Z,19.35
2023-02-08T13:15:05.329Z,19.70
2023-02-08T13:17:45.248Z,18.27
2023-02-08T13:20:30.966Z,18.23
2023-02-08T13:25:35.296Z,18.92
2023-02-08T13:28:04.362Z,17.70
2023-02-08T13:30:35.525Z,18.25
2023-02-08T13:33:18.264Z,19.20
2023-02-08T13:35:51.403Z,19.30
2023-02-08T13:38:30.557Z,18.85
2023-02-08T13:41:19.790Z,17.42
2023-02-08T13:43:54.815Z,18.08
2023-02-08T13:46:23.769Z,18.50
2023-02-08T13:48:53.394Z,18.70
2023-02-08T13:51:53.313Z,17.17
2023-02-08T13:54:20.427Z,17.80
2023-02-08T13:56:50.821Z,18.85
2023-02-08T13:59:36.335Z,19.60
2023-02-08T14:02:12.386Z,16.73
2023-02-08T14:04:44.195Z,17.42
2023-02-08T14:07:16.909Z,18.80
2023-02-08T14:09:46.315Z,18.85
2023-02-08T14:12:47.019Z,16.20
2023-02-08T14:15:16.505Z,19.13
2023-02-08T14:17:46.652Z,19.65
2023-02-08T14:20:26.423Z,18.85
2023-02-08T14:23:05.424Z,18.35
2023-02-08T14:25:47.827Z,19.17
2023-02-08T14:28:27.024Z,18.00
2023-02-08T14:30:57.639Z,19.83
2023-02-08T14:33:57.158Z,18.63
2023-02-08T14:36:35.065Z,17.33
2023-02-08T14:39:24.373Z,18.52
2023-02-08T14:41:54.680Z,16.85
2023-02-08T14:44:41.506Z,17.98
2023-02-08T14:47:35.280Z,18.13
2023-02-08T14:50:17.538Z,16.90
2023-02-08T14:53:00.971Z,16.88
2023-02-08T14:55:32.775Z,17.38
2023-02-08T14:58:01.129Z,18.05
2023-02-08T15:00:33.169Z,16.45
2023-02-08T15:03:01.604Z,14.85
2023-02-08T15:05:32.487Z,16.48
2023-02-08T15:08:03.940Z,15.48
2023-02-08T15:10:33.045Z,15.45
2023-02-08T15:13:06.476Z,15.55
2023-02-08T15:15:42.623Z,15.13
2023-02-08T15:18:19.333Z,16.30
2023-02-08T15:20:55.913Z,15.30
2023-02-08T15:23:24.477Z,14.95
2023-02-08T15:26:03.103Z,14.90
2023-02-08T15:28:32.047Z,14.73
2023-02-08T15:31:09.168Z,16.10
2023-02-08T15:33:39.536Z,16.70
2023-02-08T15:36:15.563Z,15.60
2023-02-08T15:38:46.472Z,16.42
2023-02-08T15:41:23.636Z,14.93
2023-02-08T15:43:50.645Z,15.07
2023-02-08T15:46:26.523Z,17.65
2023-02-08T15:48:54.798Z,16.08
2023-02-08T15:51:24.251Z,16.30
2023-02-08T15:53:54.699Z,16.08
2023-02-08T15:56:37.496Z,16.35
2023-02-08T15:59:08.883Z,16.92
2023-02-08T16:01:35.842Z,15.35
2023-02-08T16:04:12.580Z,14.13
2023-02-08T16:06:48.172Z,14.65
2023-02-08T16:09:28.647Z,14.93
2023-02-08T16:12:01.114Z,14.85
2023-02-08T16:14:30.241Z,14.32
2023-02-08T16:16:58.950Z,14.88
2023-02-08T16:19:33.641Z,14.60
2023-02-08T16:22:12.637Z,15.02
2023-02-08T16:24:39.501Z,14.40
2023-02-08T16:27:16.832Z,15.77
2023-02-08T16:29:47.689Z,14.90
2023-02-08T16:32:39.438Z,14.82
2023-02-08T16:35:26.578Z,15.60
2023-02-08T16:38:00.480Z,16.95
2023-02-08T16:40:51.380Z,15.18
2023-02-08T16:43:31.895Z,13.93
2023-02-08T16:46:10.853Z,17.23
2023-02-08T16:48:42.753Z,16.55
2023-02-08T16:51:22.028Z,15.73
2023-02-08T16:53:51.049Z,16.58
2023-02-08T16:56:18.178Z,17.55
2023-02-08T16:58:45.201Z,15.95
2023-02-08T17:01:14.154Z,17.15
2023-02-08T17:03:41.552Z,17.50
2023-02-08T17:06:35.565Z,17.67
2023-02-08T17:09:04.663Z,16.05
2023-02-08T17:11:32.385Z,17.88
2023-02-08T17:13:59.341Z,18.30
2023-02-08T17:16:29.022Z,18.05
2023-02-08T17:18:56.692Z,17.95
2023-02-08T17:21:23.561Z,18.50
2023-02-08T17:23:50.568Z,18.25
2023-02-08T17:26:24.125Z,19.00
2023-02-08T17:28:51.004Z,18.38
2023-02-08T17:31:17.916Z,20.45
2023-02-08T17:33:45.169Z,18.20
2023-02-08T17:36:14.847Z,19.42
2023-02-08T17:38:43.169Z,20.92
2023-02-08T17:41:14.491Z,21.50
2023-02-08T17:43:41.546Z,21.33
2023-02-08T17:46:11.125Z,20.77
2023-02-08T17:48:38.006Z,19.95
2023-02-08T17:51:16.058Z,20.83
2023-02-08T17:53:43.889Z,21.23
2023-02-08T17:56:13.321Z,22.63
2023-02-08T17:58:41.245Z,20.92
2023-02-08T18:01:10.123Z,20.15
2023-02-08T18:03:37.126Z,20.73
2023-02-08T18:06:06.185Z,19.80
2023-02-08T18:08:33.111Z,20.40
2023-02-08T18:11:05.069Z,20.55
2023-02-08T18:13:32.419Z,19.33
2023-02-08T18:15:59.171Z,21.33
2023-02-08T18:18:26.145Z,19.85
2023-02-08T18:20:52.894Z,20.92
2023-02-08T18:23:19.728Z,20.50
2023-02-08T18:25:46.607Z,20.98
2023-02-08T18:28:15.170Z,20.92
2023-02-08T18:30:42.587Z,23.52
2023-02-08T18:33:10.796Z,21.02
2023-02-08T18:35:37.976Z,21.48
2023-02-08T18:38:04.823Z,20.58
2023-02-08T18:40:32.333Z,22.40
2023-02-08T18:42:59.267Z,23.73
2023-02-08T18:45:26.082Z,22.58
2023-02-08T18:47:52.878Z,23.13
2023-02-08T18:50:19.732Z,20.48
2023-02-08T18:52:46.557Z,24.08
2023-02-08T18:55:13.399Z,24.17
2023-02-08T18:57:40.362Z,22.85
2023-02-08T19:00:07.769Z,21.95
2023-02-08T19:02:34.585Z,25.20
2023-02-08T19:05:01.392Z,23.73
2023-02-08T19:07:28.191Z,23.00
2023-02-08T19:09:55.036Z,23.38
2023-02-08T19:12:21.957Z,25.17
2023-02-08T19:14:50.753Z,24.63
2023-02-08T19:17:18.294Z,24.95
2023-02-08T19:19:45.461Z,25.23
2023-02-08T19:22:12.250Z,25.38
2023-02-08T19:24:39.062Z,24.10
2023-02-08T19:27:05.894Z,24.42
2023-02-08T19:29:34.548Z,25.25
2023-02-08T19:32:01.514Z,26.05
2023-02-08T19:34:28.412Z,27.23
2023-02-08T19:36:55.753Z,24.98
2023-02-08T19:39:26.012Z,25.77
2023-02-08T19:41:54.262Z,26.17
2023-02-08T19:44:21.943Z,25.70
2023-02-08T19:46:50.781Z,25.77
2023-02-08T19:49:18.322Z,27.88
2023-02-08T19:51:45.863Z,26.58
2023-02-08T19:54:15.476Z,26.15
2023-02-08T19:56:42.307Z,27.63
2023-02-08T19:59:23.718Z,26.95
2023-02-08T20:01:50.715Z,29.35
2023-02-08T20:04:17.572Z,25.60
2023-02-08T20:06:45.382Z,26.80
2023-02-08T20:09:15.319Z,27.02
2023-02-08T20:11:56.444Z,28.35
2023-02-08T20:14:25.753Z,27.48
2023-02-08T20:16:52.828Z,27.48
2023-02-08T20:19:19.639Z,26.80
2023-02-08T20:21:46.456Z,30.35
2023-02-08T20:24:13.881Z,27.83
2023-02-08T20:26:42.728Z,26.45
2023-02-08T20:29:09.955Z,28.40
2023-02-08T20:31:38.428Z,27.77
2023-02-08T20:34:08.752Z,25.95
2023-02-08T20:36:40.523Z,26.92
2023-02-08T20:39:11.114Z,28.17
2023-02-08T20:41:38.406Z,26.92
2023-02-08T20:44:05.683Z,28.60
2023-02-08T20:46:34.804Z,28.50
2023-02-08T20:49:04.110Z,25.48
2023-02-08T20:51:31.533Z,26.30
2023-02-08T20:54:00.372Z,26.58
2023-02-08T20:56:33.242Z,26.42
2023-02-08T20:59:08.988Z,26.65
2023-02-08T21:01:36.691Z,27.02
2023-02-08T21:04:04.813Z,26.48
2023-02-08T21:06:36.800Z,27.63
2023-02-08T21:09:06.748Z,27.58
2023-02-08T21:11:34.554Z,29.17
2023-02-08T21:14:02.183Z,28.02
2023-02-08T21:16:29.695Z,27.42
2023-02-08T21:18:59.150Z,28.08
2023-02-08T21:21:26.552Z,24.10
2023-02-08T21:23:53.476Z,27.17
2023-02-08T21:26:21.432Z,26.83
2023-02-08T21:28:51.948Z,27.08
2023-02-08T21:31:22.266Z,26.35
2023-02-08T21:33:49.837Z,27.25
2023-02-08T21:36:19.918Z,25.27
2023-02-08T21:38:47.403Z,25.92
2023-02-08T21:41:23.489Z,25.42
2023-02-08T21:43:52.980Z,24.13
2023-02-08T21:46:20.023Z,24.73
2023-02-08T21:49:05.782Z,25.88
2023-02-08T21:51:51.385Z,24.20
2023-02-08T21:54:29.650Z,24.17
2023-02-08T21:56:59.367Z,24.73
2023-02-08T21:59:26.694Z,24.75
2023-02-08T22:01:53.547Z,25.63
2023-02-08T22:04:20.498Z,21.95
2023-02-08T22:06:48.856Z,23.52
2023-02-08T22:09:20.291Z,23.25
2023-02-08T22:11:50.339Z,23.55
2023-02-08T22:14:17.212Z,22.23
2023-02-08T22:16:44.013Z,23.40
2023-02-08T22:19:10.873Z,24.27
2023-02-08T22:21:37.668Z,24.05
2023-02-08T22:24:04.700Z,24.60
2023-02-08T22:26:31.580Z,24.40
2023-02-08T22:28:58.551Z,22.75
2023-02-08T22:31:25.647Z,22.98
2023-02-08T22:33:53.554Z,21.50
2023-02-08T22:36:20.896Z,22.52
2023-02-08T22:38:47.780Z,21.67
2023-02-08T22:41:16.941Z,23.05
2023-02-08T22:43:44.919Z,21.83
2023-02-08T22:46:11.798Z,23.10
2023-02-08T22:48:38.790Z,23.58
2023-02-08T22:51:10.888Z,22.25
2023-02-08T22:53:37.762Z,21.98
2023-02-08T22:56:05.026Z,21.20
2023-02-08T22:58:31.945Z,23.15
2023-02-08T23:01:01.429Z,21.70
2023-02-08T23:03:28.349Z,23.15
2023-02-08T23:05:55.122Z,23.02
2023-02-08T23:08:22.976Z,21.73
2023-02-08T23:10:50.229Z,21.50
2023-02-08T23:13:17.103Z,21.15
2023-02-08T23:15:45.135Z,22.13
2023-02-08T23:18:12.363Z,21.38
2023-02-08T23:20:42.289Z,22.60
2023-02-08T23:23:09.196Z,21.33
2023-02-08T23:25:42.324Z,20.88
2023-02-08T23:28:11.581Z,22.50
2023-02-08T23:30:43.052Z,20.83
2023-02-08T23:33:10.132Z,21.13
2023-02-08T23:35:40.798Z,20.35
2023-02-08T23:38:09.080Z,21.35
2023-02-08T23:40:35.927Z,21.85
2023-02-08T23:43:03.789Z,22.50
2023-02-08T23:45:30.828Z,21.00
2023-02-08T23:47:57.660Z,22.67
2023-02-08T23:50:24.549Z,20.05
2023-02-08T23:52:51.455Z,20.67
2023-02-08T23:55:18.267Z,22.45
2023-02-08T23:57:45.059Z,21.98
